Нижневартовск

Карта отелей и гостиниц, располагающихся рядом с аэропортом Нижневартовск :

Нижневартовск Ханты-Мансийский автономный округ - Югра 60° 56' 59.3988" N, 76° 28' 58.1988" E
Код аэродрома ИКАО
USNN
Код аэродрома RU
УСНН
Координаты
N60.94983° E076.48283°
Превышение над уровнем моря
54
Основная полоса
03L/21R
Курс магнитный
026,7/206,7
Длина основной ВПП
3200
Ширина основной ВПП
60
Покрытие основной ВПП
Твёрдое (железобетон)
Освещение ВПП
Постоянное
Тип: 
Аэродром
Класс аэродрома: 
Международный
Принадлежность: 
ГА
Статус: 
Действующий
Сайт: 
nvavia.ru
E-mail аэродрома: 
office@nvavia.ru
Страна: 
Россия
Регион: 
Ханты-Мансийский автономный округ - Югра
Дополнительная информация: 
Оператор: ОАО «Нижневартовскавиа». Нкр.=(500)м, ДПРМ: 450-"JH/NZ", БПРМ: 915-"J/N".
Погода: 

Авиационная погода в Нижневартовске

Регион: 
Погода METAR: 
USNN 261730Z 26002MPS CAVOK M33/M36 Q1027 R21/32//65 NOSIG RMK QFE765
Время наблюдения
2021-02-26T17:30:00Z
Температура C
-33.0
Точка росы
-36.0
Направление ветра
260
Скорость ветра (узлы)
4
Метео видимость
6.21
Явления погоды
Условия полета
VFR
Аэропорт подробнее: 
Прогноз TAF: 

Найти трансфер

С помощью этой формы Вы можете найти трансфер из аэропорта Нижневартовск в город, аэропорт или вокзал:

Карта места

Javascript is required to view this map.

Погода в аэропортах:

Авиационная погода в Грозном

Регион: 
Погода METAR: 
URMG 261730Z 26002MPS 210V010 9999 -SHRA BKN038CB 03/01 Q1024 R26/290250 NOSIG RMK QFE753/1004
Время наблюдения
2021-02-26T17:30:00Z
Температура C
3.0
Точка росы
1.0
Направление ветра
260
Скорость ветра (узлы)
4
Метео видимость
6.21
Явления погоды
-SHRA
Условия полета
VFR
Аэропорт подробнее: 

Авиационная погода в Вардё

Регион: 
Погода METAR: 
ENSS 261750Z 35027KT 9999 6000NW -SHRA SCT014 BKN020 01/M02 Q1001 RMK WIND 500FT 35036KT
Время наблюдения
2021-02-26T17:50:00Z
Температура C
1.0
Точка росы
-2.0
Направление ветра
350
Скорость ветра (узлы)
27
Метео видимость
6.21
Явления погоды
-SHRA
Условия полета
MVFR

Авиационная погода в аэропорту Центральный

Регион: 
Погода METAR: 
UNOO 261730Z 19001MPS 2600 FU NSC M29/M32 Q1031 R25/820555 NOSIG RMK QFE765
Время наблюдения
2021-02-26T17:30:00Z
Температура C
-29.0
Точка росы
-32.0
Направление ветра
190
Скорость ветра (узлы)
2
Метео видимость
1.62
Явления погоды
FU
Условия полета
IFR
Аэропорт подробнее: 

Авиационная погода в Бресте

Регион: 
Погода METAR: 
UMBB 260900Z 28005MPS 5000 BR NSC 09/05 Q1022 R29/190060 NOSIG
Время наблюдения
2021-02-26T09:00:00Z
Температура C
9.0
Точка росы
5.0
Направление ветра
280
Скорость ветра (узлы)
10
Метео видимость
3.11
Явления погоды
BR
Условия полета
MVFR
Аэропорт подробнее: